sensor_id;sensor_type;location;lat;lon;timestamp;P1;durP1;ratioP1;P2;durP2;ratioP2
35376;SDS011;21480;51.642;4.834;2022-09-09T00:00:37;123.23;;;112.43;;
35376;SDS011;21480;51.642;4.834;2022-09-09T00:03:14;123.87;;;113.73;;
35376;SDS011;21480;51.642;4.834;2022-09-09T00:06:02;124.27;;;113.87;;
35376;SDS011;21480;51.642;4.834;2022-09-09T00:11:20;123.57;;;113.90;;
35376;SDS011;21480;51.642;4.834;2022-09-09T00:14:33;123.37;;;112.50;;
35376;SDS011;21480;51.642;4.834;2022-09-09T00:17:33;124.47;;;114.53;;
35376;SDS011;21480;51.642;4.834;2022-09-09T00:28:24;122.87;;;112.87;;
35376;SDS011;21480;51.642;4.834;2022-09-09T00:30:52;125.60;;;114.03;;
35376;SDS011;21480;51.642;4.834;2022-09-09T00:33:19;123.47;;;113.17;;
35376;SDS011;21480;51.642;4.834;2022-09-09T00:35:57;125.27;;;114.13;;
35376;SDS011;21480;51.642;4.834;2022-09-09T00:38:35;125.57;;;115.07;;
35376;SDS011;21480;51.642;4.834;2022-09-09T00:43:38;125.40;;;114.40;;
35376;SDS011;21480;51.642;4.834;2022-09-09T00:49:15;127.60;;;116.43;;
35376;SDS011;21480;51.642;4.834;2022-09-09T00:52:12;128.03;;;116.27;;
35376;SDS011;21480;51.642;4.834;2022-09-09T00:57:33;126.07;;;114.77;;
35376;SDS011;21480;51.642;4.834;2022-09-09T01:00:20;125.53;;;114.93;;
35376;SDS011;21480;51.642;4.834;2022-09-09T01:07:58;128.13;;;116.23;;
35376;SDS011;21480;51.642;4.834;2022-09-09T01:10:45;126.53;;;115.67;;
35376;SDS011;21480;51.642;4.834;2022-09-09T01:13:25;128.13;;;116.60;;
35376;SDS011;21480;51.642;4.834;2022-09-09T01:16:00;125.90;;;114.90;;
35376;SDS011;21480;51.642;4.834;2022-09-09T01:18:29;126.87;;;115.33;;
35376;SDS011;21480;51.642;4.834;2022-09-09T01:26:12;126.90;;;115.80;;
35376;SDS011;21480;51.642;4.834;2022-09-09T01:28:47;124.37;;;113.63;;
35376;SDS011;21480;51.642;4.834;2022-09-09T01:34:18;126.63;;;115.73;;
35376;SDS011;21480;51.642;4.834;2022-09-09T01:36:46;126.33;;;115.10;;
35376;SDS011;21480;51.642;4.834;2022-09-09T01:39:24;127.93;;;115.90;;
35376;SDS011;21480;51.642;4.834;2022-09-09T01:41:50;126.63;;;115.13;;
35376;SDS011;21480;51.642;4.834;2022-09-09T01:44:17;128.50;;;116.60;;
35376;SDS011;21480;51.642;4.834;2022-09-09T01:46:44;125.93;;;114.80;;
35376;SDS011;21480;51.642;4.834;2022-09-09T01:49:09;125.83;;;114.90;;
35376;SDS011;21480;51.642;4.834;2022-09-09T01:51:36;124.63;;;113.97;;
35376;SDS011;21480;51.642;4.834;2022-09-09T01:54:06;125.77;;;115.57;;
35376;SDS011;21480;51.642;4.834;2022-09-09T02:07:15;126.40;;;115.40;;
35376;SDS011;21480;51.642;4.834;2022-09-09T02:12:52;124.43;;;113.07;;
35376;SDS011;21480;51.642;4.834;2022-09-09T02:15:32;123.50;;;113.17;;
35376;SDS011;21480;51.642;4.834;2022-09-09T02:18:17;129.33;;;116.70;;
35376;SDS011;21480;51.642;4.834;2022-09-09T02:21:10;127.77;;;115.90;;
35376;SDS011;21480;51.642;4.834;2022-09-09T02:23:38;125.03;;;113.97;;
35376;SDS011;21480;51.642;4.834;2022-09-09T02:26:07;123.70;;;113.37;;
35376;SDS011;21480;51.642;4.834;2022-09-09T02:28:35;125.00;;;114.07;;
35376;SDS011;21480;51.642;4.834;2022-09-09T02:31:03;125.90;;;114.50;;
35376;SDS011;21480;51.642;4.834;2022-09-09T02:33:42;126.27;;;114.73;;
35376;SDS011;21480;51.642;4.834;2022-09-09T02:36:12;127.90;;;116.90;;
35376;SDS011;21480;51.642;4.834;2022-09-09T02:38:42;125.43;;;114.30;;
35376;SDS011;21480;51.642;4.834;2022-09-09T02:41:15;125.90;;;115.13;;
35376;SDS011;21480;51.642;4.834;2022-09-09T02:43:58;125.60;;;115.00;;
35376;SDS011;21480;51.642;4.834;2022-09-09T02:47:00;126.83;;;115.27;;
35376;SDS011;21480;51.642;4.834;2022-09-09T02:58:12;126.30;;;114.83;;
35376;SDS011;21480;51.642;4.834;2022-09-09T03:00:42;123.87;;;113.17;;
35376;SDS011;21480;51.642;4.834;2022-09-09T03:03:12;124.73;;;114.13;;
35376;SDS011;21480;51.642;4.834;2022-09-09T03:05:38;125.43;;;114.57;;
35376;SDS011;21480;51.642;4.834;2022-09-09T03:08:04;126.27;;;115.23;;
35376;SDS011;21480;51.642;4.834;2022-09-09T03:10:31;128.57;;;116.40;;
35376;SDS011;21480;51.642;4.834;2022-09-09T03:12:57;125.90;;;114.70;;
35376;SDS011;21480;51.642;4.834;2022-09-09T03:15:23;126.20;;;115.63;;
35376;SDS011;21480;51.642;4.834;2022-09-09T03:17:48;125.87;;;114.60;;
35376;SDS011;21480;51.642;4.834;2022-09-09T03:20:14;125.37;;;114.50;;
35376;SDS011;21480;51.642;4.834;2022-09-09T03:22:40;127.43;;;115.87;;
35376;SDS011;21480;51.642;4.834;2022-09-09T03:25:06;124.97;;;114.00;;
35376;SDS011;21480;51.642;4.834;2022-09-09T03:27:32;126.03;;;115.50;;
35376;SDS011;21480;51.642;4.834;2022-09-09T03:29:57;124.80;;;113.43;;
35376;SDS011;21480;51.642;4.834;2022-09-09T03:32:23;125.70;;;115.10;;
35376;SDS011;21480;51.642;4.834;2022-09-09T03:34:51;125.93;;;114.23;;
35376;SDS011;21480;51.642;4.834;2022-09-09T03:37:17;127.03;;;115.40;;
35376;SDS011;21480;51.642;4.834;2022-09-09T03:39:47;126.67;;;115.57;;
35376;SDS011;21480;51.642;4.834;2022-09-09T03:42:14;126.83;;;115.17;;
35376;SDS011;21480;51.642;4.834;2022-09-09T03:44:44;124.73;;;114.30;;
35376;SDS011;21480;51.642;4.834;2022-09-09T03:47:15;127.30;;;115.73;;
35376;SDS011;21480;51.642;4.834;2022-09-09T03:49:43;125.63;;;113.80;;
35376;SDS011;21480;51.642;4.834;2022-09-09T03:52:09;124.77;;;114.30;;
35376;SDS011;21480;51.642;4.834;2022-09-09T03:54:34;125.83;;;114.50;;
35376;SDS011;21480;51.642;4.834;2022-09-09T03:57:00;124.80;;;113.80;;
35376;SDS011;21480;51.642;4.834;2022-09-09T03:59:27;127.23;;;115.93;;
35376;SDS011;21480;51.642;4.834;2022-09-09T04:01:53;128.10;;;115.53;;
35376;SDS011;21480;51.642;4.834;2022-09-09T04:04:19;128.33;;;117.30;;
35376;SDS011;21480;51.642;4.834;2022-09-09T04:06:45;126.20;;;114.93;;
35376;SDS011;21480;51.642;4.834;2022-09-09T04:09:13;125.47;;;114.53;;
35376;SDS011;21480;51.642;4.834;2022-09-09T04:11:39;125.27;;;114.13;;
35376;SDS011;21480;51.642;4.834;2022-09-09T04:14:05;125.53;;;114.17;;
35376;SDS011;21480;51.642;4.834;2022-09-09T04:16:34;126.17;;;114.87;;
35376;SDS011;21480;51.642;4.834;2022-09-09T04:19:01;127.07;;;115.73;;
35376;SDS011;21480;51.642;4.834;2022-09-09T04:21:29;126.67;;;114.57;;
35376;SDS011;21480;51.642;4.834;2022-09-09T04:23:55;125.17;;;113.97;;
35376;SDS011;21480;51.642;4.834;2022-09-09T04:26:21;127.03;;;115.13;;
35376;SDS011;21480;51.642;4.834;2022-09-09T04:28:47;122.77;;;112.40;;
35376;SDS011;21480;51.642;4.834;2022-09-09T04:31:20;127.20;;;115.63;;
35376;SDS011;21480;51.642;4.834;2022-09-09T04:33:48;127.20;;;115.23;;
35376;SDS011;21480;51.642;4.834;2022-09-09T04:36:15;126.90;;;115.90;;
35376;SDS011;21480;51.642;4.834;2022-09-09T04:38:41;128.43;;;116.57;;
35376;SDS011;21480;51.642;4.834;2022-09-09T04:41:07;128.37;;;116.27;;
35376;SDS011;21480;51.642;4.834;2022-09-09T04:43:33;127.83;;;116.20;;
35376;SDS011;21480;51.642;4.834;2022-09-09T04:45:59;127.27;;;116.17;;
35376;SDS011;21480;51.642;4.834;2022-09-09T04:48:25;128.10;;;116.93;;
35376;SDS011;21480;51.642;4.834;2022-09-09T04:50:54;127.07;;;115.67;;
35376;SDS011;21480;51.642;4.834;2022-09-09T04:53:24;126.53;;;115.23;;
35376;SDS011;21480;51.642;4.834;2022-09-09T04:55:51;125.43;;;114.73;;
35376;SDS011;21480;51.642;4.834;2022-09-09T04:58:18;126.37;;;114.70;;
35376;SDS011;21480;51.642;4.834;2022-09-09T05:00:44;126.47;;;115.30;;
35376;SDS011;21480;51.642;4.834;2022-09-09T05:03:09;127.03;;;114.60;;
35376;SDS011;21480;51.642;4.834;2022-09-09T05:05:35;130.57;;;117.03;;
35376;SDS011;21480;51.642;4.834;2022-09-09T05:08:02;127.03;;;115.73;;
35376;SDS011;21480;51.642;4.834;2022-09-09T05:10:31;127.30;;;115.70;;
35376;SDS011;21480;51.642;4.834;2022-09-09T05:12:58;125.63;;;114.93;;
35376;SDS011;21480;51.642;4.834;2022-09-09T05:15:24;124.97;;;114.27;;
35376;SDS011;21480;51.642;4.834;2022-09-09T05:17:50;125.17;;;114.00;;
35376;SDS011;21480;51.642;4.834;2022-09-09T05:20:17;126.17;;;115.10;;
35376;SDS011;21480;51.642;4.834;2022-09-09T05:22:43;126.20;;;115.33;;
35376;SDS011;21480;51.642;4.834;2022-09-09T05:25:09;126.43;;;114.83;;
35376;SDS011;21480;51.642;4.834;2022-09-09T05:27:35;124.30;;;113.57;;
35376;SDS011;21480;51.642;4.834;2022-09-09T05:30:01;126.43;;;115.37;;
35376;SDS011;21480;51.642;4.834;2022-09-09T05:32:26;123.80;;;113.00;;
35376;SDS011;21480;51.642;4.834;2022-09-09T05:34:52;126.23;;;114.83;;
35376;SDS011;21480;51.642;4.834;2022-09-09T05:37:18;124.27;;;113.70;;
35376;SDS011;21480;51.642;4.834;2022-09-09T05:39:44;127.27;;;115.10;;
35376;SDS011;21480;51.642;4.834;2022-09-09T05:42:10;125.03;;;114.23;;
35376;SDS011;21480;51.642;4.834;2022-09-09T05:44:35;125.17;;;114.60;;
35376;SDS011;21480;51.642;4.834;2022-09-09T05:47:02;124.80;;;114.00;;
35376;SDS011;21480;51.642;4.834;2022-09-09T05:49:28;125.00;;;113.63;;
35376;SDS011;21480;51.642;4.834;2022-09-09T05:51:54;123.93;;;112.90;;
35376;SDS011;21480;51.642;4.834;2022-09-09T05:54:19;125.00;;;113.53;;
35376;SDS011;21480;51.642;4.834;2022-09-09T05:56:45;125.43;;;114.33;;
35376;SDS011;21480;51.642;4.834;2022-09-09T05:59:11;124.53;;;113.37;;
35376;SDS011;21480;51.642;4.834;2022-09-09T06:01:37;124.63;;;113.47;;
35376;SDS011;21480;51.642;4.834;2022-09-09T06:04:07;124.50;;;114.00;;
35376;SDS011;21480;51.642;4.834;2022-09-09T06:06:34;124.80;;;114.27;;
35376;SDS011;21480;51.642;4.834;2022-09-09T06:09:04;124.23;;;112.93;;
35376;SDS011;21480;51.642;4.834;2022-09-09T06:11:34;124.83;;;113.50;;
35376;SDS011;21480;51.642;4.834;2022-09-09T06:14:01;125.63;;;114.30;;
35376;SDS011;21480;51.642;4.834;2022-09-09T06:16:28;123.57;;;113.30;;
35376;SDS011;21480;51.642;4.834;2022-09-09T06:18:55;123.53;;;112.07;;
35376;SDS011;21480;51.642;4.834;2022-09-09T06:21:25;124.37;;;112.57;;
35376;SDS011;21480;51.642;4.834;2022-09-09T06:23:56;123.23;;;112.93;;
35376;SDS011;21480;51.642;4.834;2022-09-09T06:28:49;122.03;;;111.00;;
35376;SDS011;21480;51.642;4.834;2022-09-09T06:31:18;122.37;;;112.00;;
35376;SDS011;21480;51.642;4.834;2022-09-09T06:33:48;122.33;;;112.60;;
35376;SDS011;21480;51.642;4.834;2022-09-09T06:36:19;120.90;;;110.67;;
35376;SDS011;21480;51.642;4.834;2022-09-09T06:38:50;121.30;;;110.87;;
35376;SDS011;21480;51.642;4.834;2022-09-09T06:41:16;121.83;;;112.10;;
35376;SDS011;21480;51.642;4.834;2022-09-09T06:43:44;123.17;;;112.60;;
35376;SDS011;21480;51.642;4.834;2022-09-09T06:46:21;123.57;;;112.30;;
35376;SDS011;21480;51.642;4.834;2022-09-09T06:48:58;121.47;;;110.80;;
35376;SDS011;21480;51.642;4.834;2022-09-09T06:51:26;121.93;;;111.13;;
35376;SDS011;21480;51.642;4.834;2022-09-09T06:53:54;121.83;;;110.70;;
35376;SDS011;21480;51.642;4.834;2022-09-09T06:56:25;121.27;;;110.90;;
35376;SDS011;21480;51.642;4.834;2022-09-09T06:58:57;123.10;;;112.90;;
35376;SDS011;21480;51.642;4.834;2022-09-09T07:01:27;121.10;;;111.20;;
35376;SDS011;21480;51.642;4.834;2022-09-09T07:03:55;120.77;;;111.63;;
35376;SDS011;21480;51.642;4.834;2022-09-09T07:06:27;122.47;;;111.80;;
35376;SDS011;21480;51.642;4.834;2022-09-09T07:08:59;123.10;;;112.13;;
35376;SDS011;21480;51.642;4.834;2022-09-09T07:11:27;120.70;;;111.07;;
35376;SDS011;21480;51.642;4.834;2022-09-09T07:13:54;123.30;;;112.10;;
35376;SDS011;21480;51.642;4.834;2022-09-09T07:16:22;122.10;;;112.20;;
35376;SDS011;21480;51.642;4.834;2022-09-09T07:18:49;122.60;;;112.03;;
35376;SDS011;21480;51.642;4.834;2022-09-09T07:21:16;121.10;;;110.90;;
35376;SDS011;21480;51.642;4.834;2022-09-09T07:23:42;122.83;;;112.33;;
35376;SDS011;21480;51.642;4.834;2022-09-09T07:26:12;121.53;;;111.87;;
35376;SDS011;21480;51.642;4.834;2022-09-09T07:28:40;122.20;;;112.00;;
35376;SDS011;21480;51.642;4.834;2022-09-09T07:31:07;121.17;;;111.30;;
35376;SDS011;21480;51.642;4.834;2022-09-09T07:33:41;122.23;;;112.73;;
35376;SDS011;21480;51.642;4.834;2022-09-09T07:36:18;121.90;;;112.00;;
35376;SDS011;21480;51.642;4.834;2022-09-09T07:38:49;119.80;;;110.17;;
35376;SDS011;21480;51.642;4.834;2022-09-09T07:41:20;120.17;;;109.53;;
35376;SDS011;21480;51.642;4.834;2022-09-09T07:43:47;120.40;;;111.20;;
35376;SDS011;21480;51.642;4.834;2022-09-09T07:46:14;121.20;;;111.27;;
35376;SDS011;21480;51.642;4.834;2022-09-09T07:48:45;122.60;;;113.10;;
35376;SDS011;21480;51.642;4.834;2022-09-09T07:51:24;121.23;;;110.57;;
35376;SDS011;21480;51.642;4.834;2022-09-09T07:53:53;123.17;;;112.43;;
35376;SDS011;21480;51.642;4.834;2022-09-09T07:56:22;120.70;;;110.90;;
35376;SDS011;21480;51.642;4.834;2022-09-09T07:58:49;124.10;;;113.87;;
35376;SDS011;21480;51.642;4.834;2022-09-09T08:01:17;122.73;;;112.30;;
35376;SDS011;21480;51.642;4.834;2022-09-09T08:03:46;127.03;;;116.33;;
35376;SDS011;21480;51.642;4.834;2022-09-09T08:06:17;122.83;;;112.37;;
35376;SDS011;21480;51.642;4.834;2022-09-09T08:08:43;123.27;;;113.23;;
35376;SDS011;21480;51.642;4.834;2022-09-09T08:11:10;122.50;;;112.50;;
35376;SDS011;21480;51.642;4.834;2022-09-09T08:13:37;121.37;;;111.37;;
35376;SDS011;21480;51.642;4.834;2022-09-09T08:16:08;121.43;;;111.63;;
35376;SDS011;21480;51.642;4.834;2022-09-09T08:18:40;119.57;;;109.77;;
35376;SDS011;21480;51.642;4.834;2022-09-09T08:21:10;118.97;;;109.27;;
35376;SDS011;21480;51.642;4.834;2022-09-09T08:23:41;120.63;;;110.20;;
35376;SDS011;21480;51.642;4.834;2022-09-09T08:26:12;119.03;;;109.43;;
35376;SDS011;21480;51.642;4.834;2022-09-09T08:28:40;120.47;;;110.63;;
35376;SDS011;21480;51.642;4.834;2022-09-09T08:31:12;124.27;;;113.87;;
35376;SDS011;21480;51.642;4.834;2022-09-09T08:33:40;122.80;;;112.13;;
35376;SDS011;21480;51.642;4.834;2022-09-09T08:36:08;118.67;;;109.87;;
35376;SDS011;21480;51.642;4.834;2022-09-09T08:38:36;119.67;;;110.33;;
35376;SDS011;21480;51.642;4.834;2022-09-09T08:46:53;120.53;;;111.33;;
35376;SDS011;21480;51.642;4.834;2022-09-09T08:51:54;118.97;;;109.70;;
35376;SDS011;21480;51.642;4.834;2022-09-09T08:54:22;119.73;;;110.23;;
35376;SDS011;21480;51.642;4.834;2022-09-09T08:56:48;120.13;;;110.63;;
35376;SDS011;21480;51.642;4.834;2022-09-09T08:59:16;120.77;;;110.83;;
35376;SDS011;21480;51.642;4.834;2022-09-09T09:12:55;121.47;;;111.97;;
35376;SDS011;21480;51.642;4.834;2022-09-09T09:15:23;118.37;;;109.10;;
35376;SDS011;21480;51.642;4.834;2022-09-09T09:17:51;120.87;;;110.90;;
35376;SDS011;21480;51.642;4.834;2022-09-09T09:20:18;120.70;;;110.53;;
35376;SDS011;21480;51.642;4.834;2022-09-09T09:23:03;122.27;;;110.87;;
35376;SDS011;21480;51.642;4.834;2022-09-09T09:25:32;121.87;;;111.43;;
35376;SDS011;21480;51.642;4.834;2022-09-09T09:28:12;121.47;;;111.93;;
35376;SDS011;21480;51.642;4.834;2022-09-09T09:30:44;121.40;;;110.73;;
35376;SDS011;21480;51.642;4.834;2022-09-09T09:36:15;120.63;;;111.07;;
35376;SDS011;21480;51.642;4.834;2022-09-09T09:38:55;118.83;;;109.67;;
35376;SDS011;21480;51.642;4.834;2022-09-09T09:44:05;119.97;;;110.23;;
35376;SDS011;21480;51.642;4.834;2022-09-09T09:46:46;121.37;;;110.87;;
35376;SDS011;21480;51.642;4.834;2022-09-09T09:49:12;120.13;;;110.73;;
35376;SDS011;21480;51.642;4.834;2022-09-09T09:51:38;120.37;;;111.07;;
35376;SDS011;21480;51.642;4.834;2022-09-09T09:56:49;118.70;;;109.40;;
35376;SDS011;21480;51.642;4.834;2022-09-09T09:59:23;120.13;;;110.87;;
35376;SDS011;21480;51.642;4.834;2022-09-09T10:02:15;120.83;;;111.93;;
35376;SDS011;21480;51.642;4.834;2022-09-09T10:04:42;120.27;;;110.50;;
35376;SDS011;21480;51.642;4.834;2022-09-09T10:07:17;119.77;;;110.30;;
35376;SDS011;21480;51.642;4.834;2022-09-09T10:09:45;119.20;;;110.13;;
35376;SDS011;21480;51.642;4.834;2022-09-09T10:12:23;119.07;;;109.93;;
35376;SDS011;21480;51.642;4.834;2022-09-09T10:37:26;119.87;;;110.90;;
35376;SDS011;21480;51.642;4.834;2022-09-09T10:40:26;119.37;;;109.97;;
35376;SDS011;21480;51.642;4.834;2022-09-09T10:45:56;118.77;;;109.33;;
35376;SDS011;21480;51.642;4.834;2022-09-09T10:51:36;120.83;;;111.47;;
35376;SDS011;21480;51.642;4.834;2022-09-09T10:56:40;120.03;;;110.57;;
35376;SDS011;21480;51.642;4.834;2022-09-09T10:59:18;120.80;;;111.07;;
35376;SDS011;21480;51.642;4.834;2022-09-09T11:01:51;118.97;;;110.13;;
35376;SDS011;21480;51.642;4.834;2022-09-09T11:04:35;119.30;;;110.10;;
35376;SDS011;21480;51.642;4.834;2022-09-09T11:07:05;120.47;;;111.47;;
35376;SDS011;21480;51.642;4.834;2022-09-09T11:09:43;121.20;;;111.13;;
35376;SDS011;21480;51.642;4.834;2022-09-09T11:12:15;118.83;;;108.77;;
35376;SDS011;21480;51.642;4.834;2022-09-09T11:14:53;119.67;;;109.87;;
35376;SDS011;21480;51.642;4.834;2022-09-09T11:17:32;118.93;;;109.53;;
35376;SDS011;21480;51.642;4.834;2022-09-09T11:20:05;120.83;;;111.37;;
35376;SDS011;21480;51.642;4.834;2022-09-09T11:25:48;118.47;;;109.73;;
35376;SDS011;21480;51.642;4.834;2022-09-09T11:34:30;117.53;;;108.97;;
35376;SDS011;21480;51.642;4.834;2022-09-09T11:42:41;119.87;;;110.13;;
35376;SDS011;21480;51.642;4.834;2022-09-09T11:45:08;120.90;;;111.23;;
35376;SDS011;21480;51.642;4.834;2022-09-09T11:47:55;120.50;;;110.97;;
35376;SDS011;21480;51.642;4.834;2022-09-09T11:52:51;120.40;;;110.53;;
35376;SDS011;21480;51.642;4.834;2022-09-09T11:55:42;121.27;;;111.50;;
35376;SDS011;21480;51.642;4.834;2022-09-09T12:00:46;118.50;;;109.83;;
35376;SDS011;21480;51.642;4.834;2022-09-09T12:08:41;121.07;;;111.80;;
35376;SDS011;21480;51.642;4.834;2022-09-09T12:11:10;120.93;;;111.63;;
35376;SDS011;21480;51.642;4.834;2022-09-09T12:13:36;117.70;;;108.90;;
35376;SDS011;21480;51.642;4.834;2022-09-09T12:16:02;121.10;;;111.23;;
35376;SDS011;21480;51.642;4.834;2022-09-09T12:18:37;118.97;;;109.57;;
35376;SDS011;21480;51.642;4.834;2022-09-09T12:23:52;117.83;;;108.87;;
35376;SDS011;21480;51.642;4.834;2022-09-09T12:26:34;119.27;;;110.50;;
35376;SDS011;21480;51.642;4.834;2022-09-09T12:32:00;117.30;;;108.73;;
35376;SDS011;21480;51.642;4.834;2022-09-09T12:39:59;117.87;;;109.53;;
35376;SDS011;21480;51.642;4.834;2022-09-09T12:42:28;118.17;;;109.53;;
35376;SDS011;21480;51.642;4.834;2022-09-09T12:44:58;119.53;;;110.67;;
35376;SDS011;21480;51.642;4.834;2022-09-09T12:50:00;118.37;;;109.53;;
35376;SDS011;21480;51.642;4.834;2022-09-09T12:52:27;119.43;;;110.43;;
35376;SDS011;21480;51.642;4.834;2022-09-09T12:54:58;117.93;;;109.50;;
35376;SDS011;21480;51.642;4.834;2022-09-09T12:57:25;116.90;;;108.47;;
35376;SDS011;21480;51.642;4.834;2022-09-09T13:00:03;116.80;;;108.33;;
35376;SDS011;21480;51.642;4.834;2022-09-09T13:02:30;117.67;;;109.23;;
35376;SDS011;21480;51.642;4.834;2022-09-09T13:05:05;119.73;;;110.73;;
35376;SDS011;21480;51.642;4.834;2022-09-09T13:07:38;119.70;;;110.73;;
35376;SDS011;21480;51.642;4.834;2022-09-09T13:10:04;118.97;;;110.37;;
35376;SDS011;21480;51.642;4.834;2022-09-09T13:12:30;116.67;;;108.30;;
35376;SDS011;21480;51.642;4.834;2022-09-09T13:14:55;117.43;;;109.10;;
35376;SDS011;21480;51.642;4.834;2022-09-09T13:17:26;118.30;;;109.90;;
35376;SDS011;21480;51.642;4.834;2022-09-09T13:19:56;118.47;;;109.27;;
35376;SDS011;21480;51.642;4.834;2022-09-09T13:25:02;116.97;;;108.57;;
35376;SDS011;21480;51.642;4.834;2022-09-09T13:27:35;115.37;;;107.13;;
35376;SDS011;21480;51.642;4.834;2022-09-09T13:30:19;118.60;;;109.93;;
35376;SDS011;21480;51.642;4.834;2022-09-09T13:33:00;117.57;;;109.13;;
35376;SDS011;21480;51.642;4.834;2022-09-09T13:35:28;117.60;;;109.23;;
35376;SDS011;21480;51.642;4.834;2022-09-09T13:37:55;117.80;;;109.30;;
35376;SDS011;21480;51.642;4.834;2022-09-09T13:40:22;120.43;;;110.43;;
35376;SDS011;21480;51.642;4.834;2022-09-09T13:42:51;118.03;;;109.57;;
35376;SDS011;21480;51.642;4.834;2022-09-09T13:45:22;123.07;;;113.90;;
35376;SDS011;21480;51.642;4.834;2022-09-09T13:47:49;117.50;;;109.00;;
35376;SDS011;21480;51.642;4.834;2022-09-09T13:50:27;117.07;;;108.73;;
35376;SDS011;21480;51.642;4.834;2022-09-09T13:52:57;118.53;;;109.93;;
35376;SDS011;21480;51.642;4.834;2022-09-09T13:55:24;118.93;;;110.43;;
35376;SDS011;21480;51.642;4.834;2022-09-09T14:00:21;119.63;;;110.97;;
35376;SDS011;21480;51.642;4.834;2022-09-09T14:02:49;118.27;;;109.67;;
35376;SDS011;21480;51.642;4.834;2022-09-09T14:05:15;119.00;;;110.50;;
35376;SDS011;21480;51.642;4.834;2022-09-09T14:07:44;118.17;;;109.73;;
35376;SDS011;21480;51.642;4.834;2022-09-09T14:10:11;118.63;;;110.23;;
35376;SDS011;21480;51.642;4.834;2022-09-09T14:12:37;116.33;;;107.80;;
35376;SDS011;21480;51.642;4.834;2022-09-09T14:15:03;116.97;;;108.77;;
35376;SDS011;21480;51.642;4.834;2022-09-09T14:17:30;118.10;;;109.67;;
35376;SDS011;21480;51.642;4.834;2022-09-09T14:19:56;116.90;;;108.57;;
35376;SDS011;21480;51.642;4.834;2022-09-09T14:22:23;119.27;;;110.37;;
35376;SDS011;21480;51.642;4.834;2022-09-09T14:24:49;117.17;;;108.77;;
35376;SDS011;21480;51.642;4.834;2022-09-09T14:27:16;116.80;;;108.53;;
35376;SDS011;21480;51.642;4.834;2022-09-09T14:29:42;117.40;;;109.10;;
35376;SDS011;21480;51.642;4.834;2022-09-09T14:32:09;116.77;;;108.37;;
35376;SDS011;21480;51.642;4.834;2022-09-09T14:34:38;117.10;;;108.23;;
35376;SDS011;21480;51.642;4.834;2022-09-09T14:37:04;116.60;;;108.33;;
35376;SDS011;21480;51.642;4.834;2022-09-09T14:39:29;116.93;;;108.73;;
35376;SDS011;21480;51.642;4.834;2022-09-09T14:41:55;115.90;;;107.50;;
35376;SDS011;21480;51.642;4.834;2022-09-09T14:44:21;119.33;;;110.70;;
35376;SDS011;21480;51.642;4.834;2022-09-09T14:46:47;117.10;;;108.90;;
35376;SDS011;21480;51.642;4.834;2022-09-09T14:49:15;117.73;;;109.33;;
35376;SDS011;21480;51.642;4.834;2022-09-09T14:51:41;118.23;;;109.83;;
35376;SDS011;21480;51.642;4.834;2022-09-09T14:54:07;118.00;;;109.53;;
35376;SDS011;21480;51.642;4.834;2022-09-09T14:56:33;115.33;;;107.03;;
35376;SDS011;21480;51.642;4.834;2022-09-09T14:58:59;117.73;;;108.87;;
35376;SDS011;21480;51.642;4.834;2022-09-09T15:01:26;117.80;;;109.70;;
35376;SDS011;21480;51.642;4.834;2022-09-09T15:03:53;116.40;;;108.07;;
35376;SDS011;21480;51.642;4.834;2022-09-09T15:06:23;119.00;;;110.23;;
35376;SDS011;21480;51.642;4.834;2022-09-09T15:08:50;117.43;;;109.13;;
35376;SDS011;21480;51.642;4.834;2022-09-09T15:11:17;118.80;;;110.53;;
35376;SDS011;21480;51.642;4.834;2022-09-09T15:13:44;119.30;;;110.70;;
35376;SDS011;21480;51.642;4.834;2022-09-09T15:16:10;118.77;;;110.43;;
35376;SDS011;21480;51.642;4.834;2022-09-09T15:18:37;117.87;;;109.37;;
35376;SDS011;21480;51.642;4.834;2022-09-09T15:21:14;117.20;;;108.80;;
35376;SDS011;21480;51.642;4.834;2022-09-09T15:23:41;116.67;;;108.67;;
35376;SDS011;21480;51.642;4.834;2022-09-09T15:26:08;116.87;;;108.67;;
35376;SDS011;21480;51.642;4.834;2022-09-09T15:28:35;117.43;;;109.23;;
35376;SDS011;21480;51.642;4.834;2022-09-09T15:31:06;117.07;;;108.87;;
35376;SDS011;21480;51.642;4.834;2022-09-09T15:33:35;117.03;;;108.73;;
35376;SDS011;21480;51.642;4.834;2022-09-09T15:36:19;116.73;;;108.43;;
35376;SDS011;21480;51.642;4.834;2022-09-09T15:38:47;117.33;;;108.57;;
35376;SDS011;21480;51.642;4.834;2022-09-09T15:41:13;116.97;;;108.87;;
35376;SDS011;21480;51.642;4.834;2022-09-09T15:43:43;116.97;;;108.67;;
35376;SDS011;21480;51.642;4.834;2022-09-09T15:46:32;117.83;;;109.43;;
35376;SDS011;21480;51.642;4.834;2022-09-09T15:49:00;117.87;;;109.57;;
35376;SDS011;21480;51.642;4.834;2022-09-09T15:51:36;116.70;;;108.50;;
35376;SDS011;21480;51.642;4.834;2022-09-09T15:54:15;116.97;;;108.83;;
35376;SDS011;21480;51.642;4.834;2022-09-09T15:56:49;117.60;;;109.10;;
35376;SDS011;21480;51.642;4.834;2022-09-09T15:59:16;116.70;;;108.47;;
35376;SDS011;21480;51.642;4.834;2022-09-09T16:01:46;117.10;;;108.60;;
35376;SDS011;21480;51.642;4.834;2022-09-09T16:04:11;117.20;;;108.80;;
35376;SDS011;21480;51.642;4.834;2022-09-09T16:06:37;118.80;;;109.57;;
35376;SDS011;21480;51.642;4.834;2022-09-09T16:09:04;117.00;;;108.83;;
35376;SDS011;21480;51.642;4.834;2022-09-09T16:11:32;116.90;;;108.47;;
35376;SDS011;21480;51.642;4.834;2022-09-09T16:14:00;117.00;;;108.70;;
35376;SDS011;21480;51.642;4.834;2022-09-09T16:16:27;117.70;;;109.03;;
35376;SDS011;21480;51.642;4.834;2022-09-09T16:18:55;115.40;;;107.27;;
35376;SDS011;21480;51.642;4.834;2022-09-09T16:21:23;115.77;;;107.67;;
35376;SDS011;21480;51.642;4.834;2022-09-09T16:23:54;116.67;;;108.37;;
35376;SDS011;21480;51.642;4.834;2022-09-09T16:26:22;115.93;;;107.03;;
35376;SDS011;21480;51.642;4.834;2022-09-09T16:28:48;116.13;;;107.57;;
35376;SDS011;21480;51.642;4.834;2022-09-09T16:31:18;117.67;;;109.13;;
35376;SDS011;21480;51.642;4.834;2022-09-09T16:33:49;117.13;;;108.43;;
35376;SDS011;21480;51.642;4.834;2022-09-09T16:36:26;117.00;;;108.57;;
35376;SDS011;21480;51.642;4.834;2022-09-09T16:38:53;115.80;;;107.80;;
35376;SDS011;21480;51.642;4.834;2022-09-09T16:41:20;115.87;;;107.80;;
35376;SDS011;21480;51.642;4.834;2022-09-09T16:43:47;116.43;;;108.27;;
35376;SDS011;21480;51.642;4.834;2022-09-09T16:46:17;116.77;;;108.37;;
35376;SDS011;21480;51.642;4.834;2022-09-09T16:48:45;117.60;;;109.40;;
35376;SDS011;21480;51.642;4.834;2022-09-09T16:51:16;117.20;;;108.67;;
35376;SDS011;21480;51.642;4.834;2022-09-09T16:53:43;117.97;;;109.57;;